KMUO/MUO METAR and TAF weather

Enter ICAO airport designator
Station Type Date Time Source
KMUO METAR 2020/12/05 03:58 UTC NOAA

KMUO 050358Z AUTO 00000KT 10SM CLR M08/M08 A3048 RMK AO2 SLP367 T10811082 $


Station Type Date Time Source
KMUO Decoded METAR 2020/12/05 03:58 UTC NOAA

Mountain Home Air Force Base, ID, United States (KMUO) 43-03N 115-52W
Dec 04, 2020 - 10:58 PM EST / 2020.12.05 0358 UTC
Wind: Calm:0
Visibility: 10 mile(s):0
Sky conditions: clear
Temperature: 17.4 F (-8.1 C)
Dew Point: 17.2 F (-8.2 C)
Relative Humidity: 99%
Pressure (altimeter): 30.48 in. Hg (1032 hPa)
ob: KMUO 050358Z AUTO 00000KT 10SM CLR M08/M08 A3048 RMK AO2 SLP367 T10811082
cycle: 4

Station Type Date Time Source
KMUO TAF 2020/12/05 18:30 UTC NOAA

TAF COR KMUO 050420Z 0418/0524 11012KT 9999 FEW200 QNH3050INS
BECMG 0422/0423 VRB06KT 9999 SKC QNH3044INS
BECMG 0517/0518 12012KT 9999 FEW200 QNH3033INS TX03/0422Z TNM09/0514Z LAST NO
AMDS AFT 0501 NEXT 0710

Example: see airport list